createdAt,value
2023-05-09T15:41:58.262Z,3.55
2023-05-09T15:44:28.071Z,3.28
2023-05-09T15:46:58.673Z,2.80
2023-05-09T15:49:28.558Z,2.95
2023-05-09T15:51:58.254Z,2.90
2023-05-09T15:54:28.857Z,3.33
2023-05-09T15:57:01.160Z,2.88
2023-05-09T15:59:30.945Z,2.80
2023-05-09T16:02:00.988Z,3.25
2023-05-09T16:04:30.680Z,2.70
2023-05-09T16:07:01.162Z,3.00
2023-05-09T16:09:30.913Z,2.70
2023-05-09T16:12:03.404Z,3.00
2023-05-09T16:14:33.072Z,3.63
2023-05-09T16:17:05.490Z,3.20
2023-05-09T16:19:36.237Z,3.00
2023-05-09T16:22:06.101Z,3.00
2023-05-09T16:24:37.447Z,3.50
2023-05-09T16:27:09.648Z,2.88
2023-05-09T16:29:39.352Z,3.33
2023-05-09T16:32:09.541Z,2.85
2023-05-09T16:34:39.429Z,3.25
2023-05-09T16:37:09.072Z,3.05
2023-05-09T16:39:38.888Z,2.88
2023-05-09T16:42:11.341Z,3.35
2023-05-09T16:44:41.031Z,3.30
2023-05-09T16:47:10.677Z,3.03
2023-05-09T16:49:40.433Z,3.63
2023-05-09T16:52:10.093Z,3.13
2023-05-09T16:54:39.770Z,2.75
2023-05-09T16:57:12.095Z,2.90
2023-05-09T16:59:41.828Z,3.35
2023-05-09T17:02:11.524Z,3.30
2023-05-09T17:04:41.453Z,2.67
2023-05-09T17:07:12.793Z,3.22
2023-05-09T17:09:43.314Z,3.10
2023-05-09T17:14:48.216Z,3.30
2023-05-09T17:17:18.498Z,3.30
2023-05-09T17:19:48.625Z,3.15
2023-05-09T17:22:18.330Z,2.92
2023-05-09T17:24:48.137Z,3.35
2023-05-09T17:27:20.883Z,3.40
2023-05-09T17:29:50.758Z,3.20
2023-05-09T17:32:20.610Z,3.08
2023-05-09T17:34:50.314Z,3.20
2023-05-09T17:37:20.072Z,2.90
2023-05-09T17:39:49.787Z,3.00
2023-05-09T17:42:22.060Z,3.00
2023-05-09T17:44:51.764Z,3.42
2023-05-09T17:47:22.026Z,3.00
2023-05-09T17:49:52.184Z,3.33
2023-05-09T17:52:21.813Z,3.47
2023-05-09T17:54:51.561Z,3.05
2023-05-09T17:57:23.772Z,3.17
2023-05-09T17:59:53.722Z,3.10
2023-05-09T18:02:24.292Z,3.20
2023-05-09T18:04:54.765Z,3.00
2023-05-09T18:07:24.576Z,3.10
2023-05-09T18:09:54.216Z,2.97
2023-05-09T18:12:29.009Z,2.50
2023-05-09T18:14:58.693Z,2.45
2023-05-09T18:17:28.642Z,2.72
2023-05-09T18:19:58.573Z,2.88
2023-05-09T18:22:28.381Z,2.50
2023-05-09T18:24:58.151Z,2.53
2023-05-09T18:27:30.443Z,2.88
2023-05-09T18:30:00.195Z,2.30
2023-05-09T18:32:30.032Z,2.10
2023-05-09T18:34:59.790Z,2.42
2023-05-09T18:37:29.614Z,2.60
2023-05-09T18:39:59.397Z,2.50
2023-05-09T18:42:31.704Z,2.30
2023-05-09T18:45:04.425Z,2.42
2023-05-09T18:47:34.201Z,2.42
2023-05-09T18:50:04.217Z,2.13
2023-05-09T18:52:34.426Z,2.40
2023-05-09T18:55:06.022Z,2.60
2023-05-09T18:57:38.336Z,2.15
2023-05-09T19:00:09.285Z,2.33
2023-05-09T19:02:39.026Z,1.83
2023-05-09T19:05:09.446Z,2.20
2023-05-09T19:07:39.907Z,2.13
2023-05-09T19:12:43.000Z,2.38
2023-05-09T19:15:13.794Z,2.50
2023-05-09T19:17:43.660Z,2.20
2023-05-09T19:20:15.243Z,2.05
2023-05-09T19:22:48.412Z,2.42
2023-05-09T19:25:18.760Z,2.10
2023-05-09T19:27:52.711Z,2.30
2023-05-09T19:30:23.448Z,2.20
2023-05-09T19:32:53.104Z,2.20
2023-05-09T19:35:22.947Z,1.98
2023-05-09T19:37:52.875Z,2.28
2023-05-09T19:40:22.735Z,2.00
2023-05-09T19:42:55.043Z,2.38
2023-05-09T19:45:25.130Z,1.80
2023-05-09T19:47:55.068Z,2.10
2023-05-09T19:50:25.245Z,2.20
2023-05-09T19:52:58.364Z,2.08
2023-05-09T19:55:28.715Z,2.10
2023-05-09T19:58:01.123Z,1.92
2023-05-09T20:00:31.810Z,1.70
2023-05-09T20:03:04.135Z,2.30
2023-05-09T20:05:34.126Z,2.20
2023-05-09T20:08:04.078Z,1.83
2023-05-09T20:10:34.349Z,2.17
2023-05-09T20:13:06.973Z,2.20
2023-05-09T20:15:36.808Z,2.58
2023-05-09T20:18:07.405Z,2.40
2023-05-09T20:23:07.334Z,2.00
2023-05-09T20:25:37.188Z,2.30
2023-05-09T20:28:11.720Z,1.98
2023-05-09T20:30:41.675Z,2.75
2023-05-09T20:33:11.444Z,2.20
2023-05-09T20:35:43.307Z,1.90
2023-05-09T20:38:13.146Z,1.90
2023-05-09T20:40:43.219Z,2.58
2023-05-09T20:43:15.974Z,2.22
2023-05-09T20:45:45.996Z,1.98
2023-05-09T20:48:15.790Z,2.47
2023-05-09T20:50:45.596Z,2.10
2023-05-09T20:53:15.614Z,1.90
2023-05-09T20:55:45.473Z,2.10
2023-05-09T20:58:17.900Z,2.20
2023-05-09T21:00:48.717Z,2.05
2023-05-09T21:03:19.076Z,2.20
2023-05-09T21:05:49.088Z,2.20
2023-05-09T21:08:19.535Z,1.92
2023-05-09T21:10:49.376Z,2.13
2023-05-09T21:13:21.976Z,2.22
2023-05-09T21:15:52.040Z,2.00
2023-05-09T21:18:22.048Z,1.92
2023-05-09T21:20:52.000Z,1.95
2023-05-09T21:23:22.047Z,2.22
2023-05-09T21:25:51.863Z,1.98
2023-05-09T21:28:24.285Z,2.30
2023-05-09T21:30:54.772Z,1.83
2023-05-09T21:33:26.218Z,1.90
2023-05-09T21:35:56.083Z,1.88
2023-05-09T21:38:25.843Z,2.20
2023-05-09T21:40:55.830Z,1.60
2023-05-09T21:43:29.029Z,2.00
2023-05-09T21:45:59.386Z,1.80
2023-05-09T21:48:29.378Z,1.98
2023-05-09T21:50:59.325Z,2.13
2023-05-09T21:53:29.009Z,2.28
2023-05-09T21:55:58.956Z,1.85
2023-05-09T21:58:31.313Z,1.98
2023-05-09T22:01:01.152Z,2.03
2023-05-09T22:03:31.007Z,1.90
2023-05-09T22:06:00.741Z,1.98
2023-05-09T22:08:30.532Z,1.73
2023-05-09T22:11:00.516Z,2.05
2023-05-09T22:13:33.069Z,2.00
2023-05-09T22:16:04.133Z,2.03
2023-05-09T22:18:34.218Z,2.20
2023-05-09T22:21:04.104Z,2.13
2023-05-09T22:23:34.004Z,2.40
2023-05-09T22:26:03.766Z,2.10
2023-05-09T22:28:36.416Z,2.15
2023-05-09T22:31:08.419Z,2.25
2023-05-09T22:33:38.305Z,2.33
2023-05-09T22:36:08.944Z,2.60
2023-05-09T22:41:09.462Z,2.53
2023-05-09T22:43:41.977Z,2.30
2023-05-09T22:46:11.930Z,2.20
2023-05-09T22:48:41.828Z,2.10
2023-05-09T22:51:11.773Z,2.25
2023-05-09T22:53:41.637Z,2.25
2023-05-09T22:56:12.908Z,2.25
2023-05-09T22:58:45.522Z,2.10
2023-05-09T23:01:15.479Z,2.50
2023-05-09T23:03:45.812Z,2.28
2023-05-09T23:06:15.745Z,2.50
2023-05-09T23:08:45.692Z,2.13
2023-05-09T23:11:15.682Z,2.20
2023-05-09T23:13:48.294Z,2.25
2023-05-09T23:16:18.670Z,2.10
2023-05-09T23:18:48.647Z,2.03
2023-05-09T23:21:18.896Z,2.60
2023-05-09T23:23:48.962Z,2.55
2023-05-09T23:26:19.003Z,2.10
2023-05-09T23:28:51.549Z,2.40
2023-05-09T23:31:21.625Z,2.20
2023-05-09T23:33:51.846Z,2.30
2023-05-09T23:36:21.840Z,2.45
2023-05-09T23:38:51.792Z,2.47
2023-05-09T23:41:22.094Z,2.72
2023-05-09T23:43:54.752Z,2.72
2023-05-09T23:46:24.896Z,2.40
2023-05-09T23:48:54.938Z,2.63
2023-05-09T23:51:25.236Z,2.28
2023-05-09T23:53:55.020Z,2.40
2023-05-09T23:56:25.428Z,2.20
2023-05-09T23:58:58.002Z,2.40
